sensor_id;sensor_type;location;lat;lon;timestamp;temperature;humidity
29571;DHT22;16814;52.118;11.436;2023-03-01T00:01:17;-1.60;99.90
29571;DHT22;16814;52.118;11.436;2023-03-01T00:03:46;-1.70;99.90
29571;DHT22;16814;52.118;11.436;2023-03-01T00:06:13;-1.80;99.90
29571;DHT22;16814;52.118;11.436;2023-03-01T00:08:39;-1.90;99.90
29571;DHT22;16814;52.118;11.436;2023-03-01T00:11:07;-2.10;99.90
29571;DHT22;16814;52.118;11.436;2023-03-01T00:13:34;-2.10;99.90
29571;DHT22;16814;52.118;11.436;2023-03-01T00:16:08;-2.20;99.90
29571;DHT22;16814;52.118;11.436;2023-03-01T00:18:35;-2.30;99.90
29571;DHT22;16814;52.118;11.436;2023-03-01T00:21:01;-2.30;99.90
29571;DHT22;16814;52.118;11.436;2023-03-01T00:23:30;-2.20;99.90
29571;DHT22;16814;52.118;11.436;2023-03-01T00:25:58;-2.00;99.90
29571;DHT22;16814;52.118;11.436;2023-03-01T00:28:23;-1.60;99.90
29571;DHT22;16814;52.118;11.436;2023-03-01T00:30:50;-1.60;99.90
29571;DHT22;16814;52.118;11.436;2023-03-01T00:33:15;-1.70;99.90
29571;DHT22;16814;52.118;11.436;2023-03-01T00:35:43;-1.90;99.90
29571;DHT22;16814;52.118;11.436;2023-03-01T00:38:12;-2.00;99.90
29571;DHT22;16814;52.118;11.436;2023-03-01T00:40:38;-2.10;99.90
29571;DHT22;16814;52.118;11.436;2023-03-01T00:43:04;-2.10;99.90
29571;DHT22;16814;52.118;11.436;2023-03-01T00:45:33;-2.10;99.90
29571;DHT22;16814;52.118;11.436;2023-03-01T00:48:00;-2.10;99.90
29571;DHT22;16814;52.118;11.436;2023-03-01T00:50:25;-2.10;99.90
29571;DHT22;16814;52.118;11.436;2023-03-01T00:53:00;-2.10;99.90
29571;DHT22;16814;52.118;11.436;2023-03-01T00:55:27;-2.00;99.90
29571;DHT22;16814;52.118;11.436;2023-03-01T00:57:54;-2.10;99.90
29571;DHT22;16814;52.118;11.436;2023-03-01T01:00:22;-2.10;99.90
29571;DHT22;16814;52.118;11.436;2023-03-01T01:02:48;-2.20;99.90
29571;DHT22;16814;52.118;11.436;2023-03-01T01:05:14;-2.20;99.90
29571;DHT22;16814;52.118;11.436;2023-03-01T01:07:42;-2.30;99.90
29571;DHT22;16814;52.118;11.436;2023-03-01T01:10:09;-2.30;99.90
29571;DHT22;16814;52.118;11.436;2023-03-01T01:12:39;-2.30;99.90
29571;DHT22;16814;52.118;11.436;2023-03-01T01:15:06;-2.30;99.90
29571;DHT22;16814;52.118;11.436;2023-03-01T01:17:32;-2.20;99.90
29571;DHT22;16814;52.118;11.436;2023-03-01T01:20:00;-2.20;99.90
29571;DHT22;16814;52.118;11.436;2023-03-01T01:22:28;-2.40;99.90
29571;DHT22;16814;52.118;11.436;2023-03-01T01:24:54;-2.50;99.90
29571;DHT22;16814;52.118;11.436;2023-03-01T01:27:21;-2.50;99.90
29571;DHT22;16814;52.118;11.436;2023-03-01T01:29:49;-2.50;99.90
29571;DHT22;16814;52.118;11.436;2023-03-01T01:32:15;-2.50;99.90
29571;DHT22;16814;52.118;11.436;2023-03-01T01:34:42;-2.50;99.90
29571;DHT22;16814;52.118;11.436;2023-03-01T01:37:09;-2.50;99.90
29571;DHT22;16814;52.118;11.436;2023-03-01T01:39:36;-2.50;99.90
29571;DHT22;16814;52.118;11.436;2023-03-01T01:42:04;-2.40;99.90
29571;DHT22;16814;52.118;11.436;2023-03-01T01:44:30;-2.30;99.90
29571;DHT22;16814;52.118;11.436;2023-03-01T01:47:17;-2.20;99.90
29571;DHT22;16814;52.118;11.436;2023-03-01T01:49:54;-2.30;99.90
29571;DHT22;16814;52.118;11.436;2023-03-01T01:52:33;-2.40;99.90
29571;DHT22;16814;52.118;11.436;2023-03-01T01:55:08;-2.40;99.90
29571;DHT22;16814;52.118;11.436;2023-03-01T01:57:47;-2.40;99.90
29571;DHT22;16814;52.118;11.436;2023-03-01T02:00:24;-2.50;99.90
29571;DHT22;16814;52.118;11.436;2023-03-01T02:03:10;-2.50;99.90
29571;DHT22;16814;52.118;11.436;2023-03-01T02:08:25;-2.60;99.90
29571;DHT22;16814;52.118;11.436;2023-03-01T02:11:01;-2.50;99.90
29571;DHT22;16814;52.118;11.436;2023-03-01T02:13:32;-2.50;99.90
29571;DHT22;16814;52.118;11.436;2023-03-01T02:16:02;-2.50;99.90
29571;DHT22;16814;52.118;11.436;2023-03-01T02:18:27;-2.50;99.90
29571;DHT22;16814;52.118;11.436;2023-03-01T02:23:56;-2.50;99.90
29571;DHT22;16814;52.118;11.436;2023-03-01T02:26:51;-2.50;99.90
29571;DHT22;16814;52.118;11.436;2023-03-01T02:29:20;-2.50;99.90
29571;DHT22;16814;52.118;11.436;2023-03-01T02:31:48;-2.50;99.90
29571;DHT22;16814;52.118;11.436;2023-03-01T02:34:20;-2.60;99.90
29571;DHT22;16814;52.118;11.436;2023-03-01T02:37:00;-2.70;99.90
29571;DHT22;16814;52.118;11.436;2023-03-01T02:39:35;-2.80;99.90
29571;DHT22;16814;52.118;11.436;2023-03-01T02:42:03;-2.90;99.90
29571;DHT22;16814;52.118;11.436;2023-03-01T02:44:29;-2.90;99.90
29571;DHT22;16814;52.118;11.436;2023-03-01T02:47:02;-2.90;99.90
29571;DHT22;16814;52.118;11.436;2023-03-01T02:49:32;-2.90;99.90
29571;DHT22;16814;52.118;11.436;2023-03-01T02:52:23;-2.90;99.90
29571;DHT22;16814;52.118;11.436;2023-03-01T02:55:13;-2.80;99.90
29571;DHT22;16814;52.118;11.436;2023-03-01T02:57:56;-2.80;99.90
29571;DHT22;16814;52.118;11.436;2023-03-01T03:00:36;-2.90;99.90
29571;DHT22;16814;52.118;11.436;2023-03-01T03:03:07;-3.00;99.90
29571;DHT22;16814;52.118;11.436;2023-03-01T03:05:33;-2.90;99.90
29571;DHT22;16814;52.118;11.436;2023-03-01T03:08:02;-2.80;99.90
29571;DHT22;16814;52.118;11.436;2023-03-01T03:10:32;-2.90;99.90
29571;DHT22;16814;52.118;11.436;2023-03-01T03:13:18;-2.80;99.90
29571;DHT22;16814;52.118;11.436;2023-03-01T03:15:44;-2.90;99.90
29571;DHT22;16814;52.118;11.436;2023-03-01T03:18:14;-2.90;99.90
29571;DHT22;16814;52.118;11.436;2023-03-01T03:20:44;-2.80;99.90
29571;DHT22;16814;52.118;11.436;2023-03-01T03:23:11;-2.90;99.90
29571;DHT22;16814;52.118;11.436;2023-03-01T03:25:38;-2.90;99.90
29571;DHT22;16814;52.118;11.436;2023-03-01T03:28:06;-3.00;99.90
29571;DHT22;16814;52.118;11.436;2023-03-01T03:30:41;-3.00;99.90
29571;DHT22;16814;52.118;11.436;2023-03-01T03:33:11;-3.00;99.90
29571;DHT22;16814;52.118;11.436;2023-03-01T03:35:48;-3.00;99.90
29571;DHT22;16814;52.118;11.436;2023-03-01T03:38:17;-2.90;99.90
29571;DHT22;16814;52.118;11.436;2023-03-01T03:41:03;-3.00;99.90
29571;DHT22;16814;52.118;11.436;2023-03-01T03:43:33;-3.10;99.90
29571;DHT22;16814;52.118;11.436;2023-03-01T03:45:59;-3.20;99.90
29571;DHT22;16814;52.118;11.436;2023-03-01T03:48:27;-3.20;99.90
29571;DHT22;16814;52.118;11.436;2023-03-01T03:50:54;-3.20;99.90
29571;DHT22;16814;52.118;11.436;2023-03-01T03:53:22;-3.20;99.90
29571;DHT22;16814;52.118;11.436;2023-03-01T03:55:49;-3.20;99.90
29571;DHT22;16814;52.118;11.436;2023-03-01T03:58:17;-3.30;99.90
29571;DHT22;16814;52.118;11.436;2023-03-01T04:00:47;-3.30;99.90
29571;DHT22;16814;52.118;11.436;2023-03-01T04:03:16;-3.30;99.90
29571;DHT22;16814;52.118;11.436;2023-03-01T04:05:42;-3.00;99.90
29571;DHT22;16814;52.118;11.436;2023-03-01T04:08:09;-3.20;99.90
29571;DHT22;16814;52.118;11.436;2023-03-01T04:10:44;-3.20;99.90
29571;DHT22;16814;52.118;11.436;2023-03-01T04:13:21;-3.30;99.90
29571;DHT22;16814;52.118;11.436;2023-03-01T04:15:54;-3.10;99.90
29571;DHT22;16814;52.118;11.436;2023-03-01T04:18:22;-3.10;99.90
29571;DHT22;16814;52.118;11.436;2023-03-01T04:20:49;-3.10;99.90
29571;DHT22;16814;52.118;11.436;2023-03-01T04:23:20;-3.20;99.90
29571;DHT22;16814;52.118;11.436;2023-03-01T04:25:55;-3.20;99.90
29571;DHT22;16814;52.118;11.436;2023-03-01T04:28:31;-3.20;99.90
29571;DHT22;16814;52.118;11.436;2023-03-01T04:31:04;-3.30;99.90
29571;DHT22;16814;52.118;11.436;2023-03-01T04:33:50;-3.30;99.90
29571;DHT22;16814;52.118;11.436;2023-03-01T04:36:26;-3.30;99.90
29571;DHT22;16814;52.118;11.436;2023-03-01T04:39:02;-3.30;99.90
29571;DHT22;16814;52.118;11.436;2023-03-01T04:41:39;-3.40;99.90
29571;DHT22;16814;52.118;11.436;2023-03-01T04:44:06;-3.40;99.90
29571;DHT22;16814;52.118;11.436;2023-03-01T04:46:35;-3.40;99.90
29571;DHT22;16814;52.118;11.436;2023-03-01T04:49:03;-3.50;99.90
29571;DHT22;16814;52.118;11.436;2023-03-01T04:51:29;-3.50;99.90
29571;DHT22;16814;52.118;11.436;2023-03-01T04:53:56;-3.60;99.90
29571;DHT22;16814;52.118;11.436;2023-03-01T04:56:23;-3.60;99.90
29571;DHT22;16814;52.118;11.436;2023-03-01T04:58:49;-3.50;99.90
29571;DHT22;16814;52.118;11.436;2023-03-01T05:01:20;-3.50;99.90
29571;DHT22;16814;52.118;11.436;2023-03-01T05:03:52;-3.50;99.90
29571;DHT22;16814;52.118;11.436;2023-03-01T05:06:19;-3.60;99.90
29571;DHT22;16814;52.118;11.436;2023-03-01T05:08:45;-3.50;99.90
29571;DHT22;16814;52.118;11.436;2023-03-01T05:11:12;-3.50;99.90
29571;DHT22;16814;52.118;11.436;2023-03-01T05:13:41;-3.40;99.90
29571;DHT22;16814;52.118;11.436;2023-03-01T05:16:07;-3.50;99.90
29571;DHT22;16814;52.118;11.436;2023-03-01T05:18:38;-3.50;99.90
29571;DHT22;16814;52.118;11.436;2023-03-01T05:21:12;-3.50;99.90
29571;DHT22;16814;52.118;11.436;2023-03-01T05:23:43;-3.50;99.90
29571;DHT22;16814;52.118;11.436;2023-03-01T05:26:09;-3.50;99.90
29571;DHT22;16814;52.118;11.436;2023-03-01T05:28:35;-3.50;99.90
29571;DHT22;16814;52.118;11.436;2023-03-01T05:31:02;-3.40;99.90
29571;DHT22;16814;52.118;11.436;2023-03-01T05:33:30;-3.50;99.90
29571;DHT22;16814;52.118;11.436;2023-03-01T05:35:59;-3.50;99.90
29571;DHT22;16814;52.118;11.436;2023-03-01T05:38:25;-3.50;99.90
29571;DHT22;16814;52.118;11.436;2023-03-01T05:40:50;-3.60;99.90
29571;DHT22;16814;52.118;11.436;2023-03-01T05:43:20;-3.60;99.90
29571;DHT22;16814;52.118;11.436;2023-03-01T05:45:46;-3.60;99.90
29571;DHT22;16814;52.118;11.436;2023-03-01T05:48:13;-3.50;99.90
29571;DHT22;16814;52.118;11.436;2023-03-01T05:50:43;-3.60;99.90
29571;DHT22;16814;52.118;11.436;2023-03-01T05:53:17;-3.70;99.90
29571;DHT22;16814;52.118;11.436;2023-03-01T05:55:45;-3.80;99.90
29571;DHT22;16814;52.118;11.436;2023-03-01T05:58:17;-3.80;99.90
29571;DHT22;16814;52.118;11.436;2023-03-01T06:00:46;-3.70;99.90
29571;DHT22;16814;52.118;11.436;2023-03-01T06:03:13;-3.70;99.90
29571;DHT22;16814;52.118;11.436;2023-03-01T06:05:40;-3.60;99.90
29571;DHT22;16814;52.118;11.436;2023-03-01T06:08:06;-3.60;99.90
29571;DHT22;16814;52.118;11.436;2023-03-01T06:10:34;-3.70;99.90
29571;DHT22;16814;52.118;11.436;2023-03-01T06:13:02;-3.70;99.90
29571;DHT22;16814;52.118;11.436;2023-03-01T06:15:28;-3.80;99.90
29571;DHT22;16814;52.118;11.436;2023-03-01T06:17:55;-3.80;99.90
29571;DHT22;16814;52.118;11.436;2023-03-01T06:20:29;-3.80;99.90
29571;DHT22;16814;52.118;11.436;2023-03-01T06:22:55;-3.80;99.90
29571;DHT22;16814;52.118;11.436;2023-03-01T06:25:24;-3.70;99.90
29571;DHT22;16814;52.118;11.436;2023-03-01T06:27:51;-3.70;99.90
29571;DHT22;16814;52.118;11.436;2023-03-01T06:30:24;-3.60;99.90
29571;DHT22;16814;52.118;11.436;2023-03-01T06:32:51;-3.50;99.90
29571;DHT22;16814;52.118;11.436;2023-03-01T06:35:21;-3.40;99.90
29571;DHT22;16814;52.118;11.436;2023-03-01T06:37:48;-3.30;99.90
29571;DHT22;16814;52.118;11.436;2023-03-01T06:40:15;-3.20;99.90
29571;DHT22;16814;52.118;11.436;2023-03-01T06:42:50;-3.20;99.90
29571;DHT22;16814;52.118;11.436;2023-03-01T06:45:18;-3.20;99.90
29571;DHT22;16814;52.118;11.436;2023-03-01T06:47:47;-3.20;99.90
29571;DHT22;16814;52.118;11.436;2023-03-01T06:50:14;-3.20;99.90
29571;DHT22;16814;52.118;11.436;2023-03-01T06:52:41;-3.10;99.90
29571;DHT22;16814;52.118;11.436;2023-03-01T06:55:08;-3.00;99.90
29571;DHT22;16814;52.118;11.436;2023-03-01T06:57:35;-2.90;99.90
29571;DHT22;16814;52.118;11.436;2023-03-01T07:00:04;-2.90;99.90
29571;DHT22;16814;52.118;11.436;2023-03-01T07:02:32;-2.90;99.90
29571;DHT22;16814;52.118;11.436;2023-03-01T07:04:59;-2.80;99.90
29571;DHT22;16814;52.118;11.436;2023-03-01T07:07:26;-2.70;99.90
29571;DHT22;16814;52.118;11.436;2023-03-01T07:09:54;-2.50;99.90
29571;DHT22;16814;52.118;11.436;2023-03-01T07:12:21;-2.40;99.90
29571;DHT22;16814;52.118;11.436;2023-03-01T07:14:49;-2.30;99.90
29571;DHT22;16814;52.118;11.436;2023-03-01T07:17:16;-2.30;99.90
29571;DHT22;16814;52.118;11.436;2023-03-01T07:19:42;-2.30;99.90
29571;DHT22;16814;52.118;11.436;2023-03-01T07:22:16;-2.30;99.90
29571;DHT22;16814;52.118;11.436;2023-03-01T07:24:42;-2.20;99.90
29571;DHT22;16814;52.118;11.436;2023-03-01T07:27:11;-2.20;99.90
29571;DHT22;16814;52.118;11.436;2023-03-01T07:29:38;-2.20;99.90
29571;DHT22;16814;52.118;11.436;2023-03-01T07:32:06;-2.10;99.90
29571;DHT22;16814;52.118;11.436;2023-03-01T07:34:33;-2.10;99.90
29571;DHT22;16814;52.118;11.436;2023-03-01T07:36:59;-2.00;99.90
29571;DHT22;16814;52.118;11.436;2023-03-01T07:39:27;-2.00;99.90
29571;DHT22;16814;52.118;11.436;2023-03-01T07:41:53;-1.90;99.90
29571;DHT22;16814;52.118;11.436;2023-03-01T07:44:20;-1.80;99.90
29571;DHT22;16814;52.118;11.436;2023-03-01T07:46:47;-1.70;99.90
29571;DHT22;16814;52.118;11.436;2023-03-01T07:49:15;-1.60;99.90
29571;DHT22;16814;52.118;11.436;2023-03-01T07:51:43;-1.40;99.90
29571;DHT22;16814;52.118;11.436;2023-03-01T07:54:09;-1.30;99.90
29571;DHT22;16814;52.118;11.436;2023-03-01T07:56:36;-1.10;99.90
29571;DHT22;16814;52.118;11.436;2023-03-01T07:59:04;-1.00;99.90
29571;DHT22;16814;52.118;11.436;2023-03-01T08:01:31;-0.90;99.90
29571;DHT22;16814;52.118;11.436;2023-03-01T08:03:56;-0.70;99.90
29571;DHT22;16814;52.118;11.436;2023-03-01T08:06:23;-0.60;99.90
29571;DHT22;16814;52.118;11.436;2023-03-01T08:08:50;-0.40;99.90
29571;DHT22;16814;52.118;11.436;2023-03-01T08:11:18;-0.40;99.90
29571;DHT22;16814;52.118;11.436;2023-03-01T08:13:43;-0.40;99.90
29571;DHT22;16814;52.118;11.436;2023-03-01T08:16:13;-0.40;99.90
29571;DHT22;16814;52.118;11.436;2023-03-01T08:18:42;-0.40;99.90
29571;DHT22;16814;52.118;11.436;2023-03-01T08:21:11;-0.50;99.90
29571;DHT22;16814;52.118;11.436;2023-03-01T08:23:39;-0.40;99.90
29571;DHT22;16814;52.118;11.436;2023-03-01T08:26:07;-0.10;99.90
29571;DHT22;16814;52.118;11.436;2023-03-01T08:28:34;0.00;99.90
29571;DHT22;16814;52.118;11.436;2023-03-01T08:31:03;0.20;99.90
29571;DHT22;16814;52.118;11.436;2023-03-01T08:33:29;0.30;99.90
29571;DHT22;16814;52.118;11.436;2023-03-01T08:36:04;0.40;99.90
29571;DHT22;16814;52.118;11.436;2023-03-01T08:38:35;0.30;99.90
29571;DHT22;16814;52.118;11.436;2023-03-01T08:41:02;0.40;99.90
29571;DHT22;16814;52.118;11.436;2023-03-01T08:43:34;0.50;99.90
29571;DHT22;16814;52.118;11.436;2023-03-01T08:45:59;0.60;99.90
29571;DHT22;16814;52.118;11.436;2023-03-01T08:48:27;0.70;99.90
29571;DHT22;16814;52.118;11.436;2023-03-01T08:50:53;0.70;99.90
29571;DHT22;16814;52.118;11.436;2023-03-01T08:53:20;0.90;99.90
29571;DHT22;16814;52.118;11.436;2023-03-01T08:55:53;1.10;99.90
29571;DHT22;16814;52.118;11.436;2023-03-01T08:58:19;1.40;99.90
29571;DHT22;16814;52.118;11.436;2023-03-01T09:00:48;1.60;99.90
29571;DHT22;16814;52.118;11.436;2023-03-01T09:03:13;1.80;99.90
29571;DHT22;16814;52.118;11.436;2023-03-01T09:05:41;1.80;99.90
29571;DHT22;16814;52.118;11.436;2023-03-01T09:08:08;2.10;99.90
29571;DHT22;16814;52.118;11.436;2023-03-01T09:10:40;2.10;99.90
29571;DHT22;16814;52.118;11.436;2023-03-01T09:13:07;2.30;99.90
29571;DHT22;16814;52.118;11.436;2023-03-01T09:15:32;2.40;99.90
29571;DHT22;16814;52.118;11.436;2023-03-01T09:18:01;2.50;99.90
29571;DHT22;16814;52.118;11.436;2023-03-01T09:20:28;2.70;99.90
29571;DHT22;16814;52.118;11.436;2023-03-01T09:22:57;2.50;99.90
29571;DHT22;16814;52.118;11.436;2023-03-01T09:25:24;2.60;99.90
29571;DHT22;16814;52.118;11.436;2023-03-01T09:27:57;2.90;99.90
29571;DHT22;16814;52.118;11.436;2023-03-01T09:30:26;3.10;99.90
29571;DHT22;16814;52.118;11.436;2023-03-01T09:32:57;3.40;99.90
29571;DHT22;16814;52.118;11.436;2023-03-01T09:35:23;3.50;99.90
29571;DHT22;16814;52.118;11.436;2023-03-01T09:37:49;3.40;99.90
29571;DHT22;16814;52.118;11.436;2023-03-01T09:40:19;3.60;99.90
29571;DHT22;16814;52.118;11.436;2023-03-01T09:43:07;3.90;99.90
29571;DHT22;16814;52.118;11.436;2023-03-01T09:45:36;4.20;99.90
29571;DHT22;16814;52.118;11.436;2023-03-01T09:48:06;4.40;99.90
29571;DHT22;16814;52.118;11.436;2023-03-01T09:50:41;4.60;99.90
29571;DHT22;16814;52.118;11.436;2023-03-01T09:53:29;4.60;99.90
29571;DHT22;16814;52.118;11.436;2023-03-01T09:56:20;4.80;99.90
29571;DHT22;16814;52.118;11.436;2023-03-01T10:04:51;4.40;99.90
29571;DHT22;16814;52.118;11.436;2023-03-01T10:10:10;4.60;99.90
29571;DHT22;16814;52.118;11.436;2023-03-01T10:12:42;4.80;99.90
29571;DHT22;16814;52.118;11.436;2023-03-01T10:15:25;4.90;99.90
29571;DHT22;16814;52.118;11.436;2023-03-01T10:18:09;4.90;99.90
29571;DHT22;16814;52.118;11.436;2023-03-01T10:20:58;4.90;99.90
29571;DHT22;16814;52.118;11.436;2023-03-01T10:23:35;5.00;99.90
29571;DHT22;16814;52.118;11.436;2023-03-01T10:28:58;5.10;99.90
29571;DHT22;16814;52.118;11.436;2023-03-01T10:31:47;5.00;99.90
29571;DHT22;16814;52.118;11.436;2023-03-01T10:34:36;5.00;99.90
29571;DHT22;16814;52.118;11.436;2023-03-01T10:37:23;5.10;99.90
29571;DHT22;16814;52.118;11.436;2023-03-01T10:40:07;5.30;99.90
29571;DHT22;16814;52.118;11.436;2023-03-01T10:42:49;5.30;99.90
29571;DHT22;16814;52.118;11.436;2023-03-01T10:45:37;5.20;99.90
29571;DHT22;16814;52.118;11.436;2023-03-01T10:48:17;5.50;99.90
29571;DHT22;16814;52.118;11.436;2023-03-01T10:50:46;5.70;99.90
29571;DHT22;16814;52.118;11.436;2023-03-01T10:53:41;5.40;99.90
29571;DHT22;16814;52.118;11.436;2023-03-01T10:56:13;5.70;99.90
29571;DHT22;16814;52.118;11.436;2023-03-01T10:58:58;5.80;99.90
29571;DHT22;16814;52.118;11.436;2023-03-01T11:01:36;5.80;99.90
29571;DHT22;16814;52.118;11.436;2023-03-01T11:04:13;5.50;99.90
29571;DHT22;16814;52.118;11.436;2023-03-01T11:06:43;5.80;99.90
29571;DHT22;16814;52.118;11.436;2023-03-01T11:09:23;5.70;99.90
29571;DHT22;16814;52.118;11.436;2023-03-01T11:11:56;5.80;99.90
29571;DHT22;16814;52.118;11.436;2023-03-01T11:14:25;5.90;99.90
29571;DHT22;16814;52.118;11.436;2023-03-01T11:17:01;6.10;99.90
29571;DHT22;16814;52.118;11.436;2023-03-01T11:19:30;6.00;99.90
29571;DHT22;16814;52.118;11.436;2023-03-01T11:22:14;6.10;99.90
29571;DHT22;16814;52.118;11.436;2023-03-01T11:24:55;6.00;99.90
29571;DHT22;16814;52.118;11.436;2023-03-01T11:27:30;6.10;99.90
29571;DHT22;16814;52.118;11.436;2023-03-01T11:33:16;6.10;99.90
29571;DHT22;16814;52.118;11.436;2023-03-01T11:36:06;6.20;99.90
29571;DHT22;16814;52.118;11.436;2023-03-01T11:38:38;5.90;99.90
29571;DHT22;16814;52.118;11.436;2023-03-01T11:41:21;6.00;99.90
29571;DHT22;16814;52.118;11.436;2023-03-01T11:44:03;5.80;99.90
29571;DHT22;16814;52.118;11.436;2023-03-01T11:49:44;6.10;99.90
29571;DHT22;16814;52.118;11.436;2023-03-01T11:56:06;5.60;99.90
29571;DHT22;16814;52.118;11.436;2023-03-01T11:58:45;5.70;99.90
29571;DHT22;16814;52.118;11.436;2023-03-01T12:10:35;6.10;99.90
29571;DHT22;16814;52.118;11.436;2023-03-01T12:16:06;5.70;99.90
29571;DHT22;16814;52.118;11.436;2023-03-01T12:18:58;5.80;99.90
29571;DHT22;16814;52.118;11.436;2023-03-01T12:25:02;5.80;99.90
29571;DHT22;16814;52.118;11.436;2023-03-01T12:36:27;5.60;99.90
29571;DHT22;16814;52.118;11.436;2023-03-01T12:48:19;5.50;99.90
29571;DHT22;16814;52.118;11.436;2023-03-01T12:50:54;5.70;99.90
29571;DHT22;16814;52.118;11.436;2023-03-01T12:53:36;5.90;99.90
29571;DHT22;16814;52.118;11.436;2023-03-01T12:56:22;5.80;99.90
29571;DHT22;16814;52.118;11.436;2023-03-01T13:07:43;5.80;99.90
29571;DHT22;16814;52.118;11.436;2023-03-01T13:10:31;6.00;99.90
29571;DHT22;16814;52.118;11.436;2023-03-01T13:15:49;6.00;99.90
29571;DHT22;16814;52.118;11.436;2023-03-01T13:20:50;5.90;99.90
29571;DHT22;16814;52.118;11.436;2023-03-01T13:26:17;5.80;99.90
29571;DHT22;16814;52.118;11.436;2023-03-01T13:28:55;5.90;99.90
29571;DHT22;16814;52.118;11.436;2023-03-01T13:34:06;6.20;99.90
29571;DHT22;16814;52.118;11.436;2023-03-01T13:37:08;6.10;99.90
29571;DHT22;16814;52.118;11.436;2023-03-01T13:39:41;5.90;99.90
29571;DHT22;16814;52.118;11.436;2023-03-01T13:45:00;5.70;99.90
29571;DHT22;16814;52.118;11.436;2023-03-01T13:47:27;5.90;99.90
29571;DHT22;16814;52.118;11.436;2023-03-01T13:49:57;6.00;99.90
29571;DHT22;16814;52.118;11.436;2023-03-01T13:52:48;6.10;99.90
29571;DHT22;16814;52.118;11.436;2023-03-01T13:55:46;6.30;99.90
29571;DHT22;16814;52.118;11.436;2023-03-01T13:58:43;6.00;99.90
29571;DHT22;16814;52.118;11.436;2023-03-01T14:01:31;6.10;99.20
29571;DHT22;16814;52.118;11.436;2023-03-01T14:04:00;6.10;99.90
29571;DHT22;16814;52.118;11.436;2023-03-01T14:06:31;6.10;99.90
29571;DHT22;16814;52.118;11.436;2023-03-01T14:09:25;6.20;99.90
29571;DHT22;16814;52.118;11.436;2023-03-01T14:15:27;6.30;97.80
29571;DHT22;16814;52.118;11.436;2023-03-01T14:18:30;6.10;98.40
29571;DHT22;16814;52.118;11.436;2023-03-01T14:21:09;6.10;99.90
29571;DHT22;16814;52.118;11.436;2023-03-01T14:23:37;6.30;97.50
29571;DHT22;16814;52.118;11.436;2023-03-01T14:26:05;6.40;98.30
29571;DHT22;16814;52.118;11.436;2023-03-01T14:28:36;6.40;97.00
29571;DHT22;16814;52.118;11.436;2023-03-01T14:31:31;6.40;97.50
29571;DHT22;16814;52.118;11.436;2023-03-01T14:33:58;6.40;99.00
29571;DHT22;16814;52.118;11.436;2023-03-01T14:36:29;6.40;98.80
29571;DHT22;16814;52.118;11.436;2023-03-01T14:38:56;6.20;97.70
29571;DHT22;16814;52.118;11.436;2023-03-01T14:41:35;6.10;97.80
29571;DHT22;16814;52.118;11.436;2023-03-01T14:44:07;6.20;97.20
29571;DHT22;16814;52.118;11.436;2023-03-01T14:46:42;5.90;97.60
29571;DHT22;16814;52.118;11.436;2023-03-01T14:49:29;6.10;98.40
29571;DHT22;16814;52.118;11.436;2023-03-01T14:52:07;6.20;97.80
29571;DHT22;16814;52.118;11.436;2023-03-01T14:54:46;6.10;98.70
29571;DHT22;16814;52.118;11.436;2023-03-01T14:57:22;5.90;98.70
29571;DHT22;16814;52.118;11.436;2023-03-01T14:59:52;6.10;98.40
29571;DHT22;16814;52.118;11.436;2023-03-01T15:02:25;6.20;96.50
29571;DHT22;16814;52.118;11.436;2023-03-01T15:04:57;6.10;96.10
29571;DHT22;16814;52.118;11.436;2023-03-01T15:07:29;6.00;95.90
29571;DHT22;16814;52.118;11.436;2023-03-01T15:10:12;6.10;96.30
29571;DHT22;16814;52.118;11.436;2023-03-01T15:12:41;6.10;97.40
29571;DHT22;16814;52.118;11.436;2023-03-01T15:15:36;6.00;98.60
29571;DHT22;16814;52.118;11.436;2023-03-01T15:18:22;6.10;98.90
29571;DHT22;16814;52.118;11.436;2023-03-01T15:20:51;6.20;99.40
29571;DHT22;16814;52.118;11.436;2023-03-01T15:23:31;6.00;98.30
29571;DHT22;16814;52.118;11.436;2023-03-01T15:25:57;5.90;99.40
29571;DHT22;16814;52.118;11.436;2023-03-01T15:28:37;5.90;97.20
29571;DHT22;16814;52.118;11.436;2023-03-01T15:31:28;6.00;99.80
29571;DHT22;16814;52.118;11.436;2023-03-01T15:34:34;6.00;99.10
29571;DHT22;16814;52.118;11.436;2023-03-01T15:37:02;5.90;99.50
29571;DHT22;16814;52.118;11.436;2023-03-01T15:39:43;5.90;98.20
29571;DHT22;16814;52.118;11.436;2023-03-01T15:45:20;5.90;99.20
29571;DHT22;16814;52.118;11.436;2023-03-01T15:48:17;5.80;98.60
29571;DHT22;16814;52.118;11.436;2023-03-01T15:51:00;5.70;99.90
29571;DHT22;16814;52.118;11.436;2023-03-01T15:53:28;5.50;98.30
29571;DHT22;16814;52.118;11.436;2023-03-01T15:55:55;5.40;99.40
29571;DHT22;16814;52.118;11.436;2023-03-01T15:58:25;5.50;99.60
29571;DHT22;16814;52.118;11.436;2023-03-01T16:00:51;5.50;99.30
29571;DHT22;16814;52.118;11.436;2023-03-01T16:03:23;5.50;99.90
29571;DHT22;16814;52.118;11.436;2023-03-01T16:05:50;5.50;99.90
29571;DHT22;16814;52.118;11.436;2023-03-01T16:08:16;5.40;99.90
29571;DHT22;16814;52.118;11.436;2023-03-01T16:10:44;5.40;99.90
29571;DHT22;16814;52.118;11.436;2023-03-01T16:13:15;5.60;99.90
29571;DHT22;16814;52.118;11.436;2023-03-01T16:15:42;5.30;99.90
29571;DHT22;16814;52.118;11.436;2023-03-01T16:18:11;5.20;99.90
29571;DHT22;16814;52.118;11.436;2023-03-01T16:20:41;5.20;99.90
29571;DHT22;16814;52.118;11.436;2023-03-01T16:23:09;4.90;99.90
29571;DHT22;16814;52.118;11.436;2023-03-01T16:25:38;4.70;99.90
29571;DHT22;16814;52.118;11.436;2023-03-01T16:28:03;4.60;99.90
29571;DHT22;16814;52.118;11.436;2023-03-01T16:30:35;4.60;99.90
29571;DHT22;16814;52.118;11.436;2023-03-01T16:33:03;4.60;99.90
29571;DHT22;16814;52.118;11.436;2023-03-01T16:35:33;4.70;99.90
29571;DHT22;16814;52.118;11.436;2023-03-01T16:38:05;4.60;99.90
29571;DHT22;16814;52.118;11.436;2023-03-01T16:40:31;4.50;99.90
29571;DHT22;16814;52.118;11.436;2023-03-01T16:42:58;4.40;99.90
29571;DHT22;16814;52.118;11.436;2023-03-01T16:45:33;4.30;99.90
29571;DHT22;16814;52.118;11.436;2023-03-01T16:48:03;4.20;99.90
29571;DHT22;16814;52.118;11.436;2023-03-01T16:50:31;4.10;99.90
29571;DHT22;16814;52.118;11.436;2023-03-01T16:52:56;3.90;99.90
29571;DHT22;16814;52.118;11.436;2023-03-01T16:55:23;3.80;99.90
29571;DHT22;16814;52.118;11.436;2023-03-01T16:57:50;3.70;99.90
29571;DHT22;16814;52.118;11.436;2023-03-01T17:00:18;3.60;99.90
29571;DHT22;16814;52.118;11.436;2023-03-01T17:02:44;3.50;99.90
29571;DHT22;16814;52.118;11.436;2023-03-01T17:05:11;3.50;99.90
29571;DHT22;16814;52.118;11.436;2023-03-01T17:07:39;3.40;99.90
29571;DHT22;16814;52.118;11.436;2023-03-01T17:10:08;3.30;99.90
29571;DHT22;16814;52.118;11.436;2023-03-01T17:12:35;3.20;99.90
29571;DHT22;16814;52.118;11.436;2023-03-01T17:15:10;3.20;99.90
29571;DHT22;16814;52.118;11.436;2023-03-01T17:17:38;3.10;99.90
29571;DHT22;16814;52.118;11.436;2023-03-01T17:20:04;3.00;99.90
29571;DHT22;16814;52.118;11.436;2023-03-01T17:22:31;3.00;99.90